sensor_id;sensor_type;location;lat;lon;timestamp;pressure;altitude;pressure_sealevel;temperature;humidity
28008;BME280;15333;50.010;20.020;2023-05-07T00:02:57;98914.03;;;10.93;100.00
28008;BME280;15333;50.010;20.020;2023-05-07T00:05:58;98908.84;;;11.03;100.00
28008;BME280;15333;50.010;20.020;2023-05-07T00:08:59;98918.88;;;10.65;100.00
28008;BME280;15333;50.010;20.020;2023-05-07T00:12:01;98920.31;;;10.45;100.00
28008;BME280;15333;50.010;20.020;2023-05-07T00:15:03;98924.75;;;10.33;100.00
28008;BME280;15333;50.010;20.020;2023-05-07T00:18:04;98917.50;;;10.35;100.00
28008;BME280;15333;50.010;20.020;2023-05-07T00:21:05;98924.75;;;10.33;100.00
28008;BME280;15333;50.010;20.020;2023-05-07T00:24:06;98921.56;;;10.28;100.00
28008;BME280;15333;50.010;20.020;2023-05-07T00:27:07;98925.31;;;10.13;100.00
28008;BME280;15333;50.010;20.020;2023-05-07T00:30:08;98926.19;;;10.01;100.00
28008;BME280;15333;50.010;20.020;2023-05-07T00:33:09;98931.66;;;9.99;100.00
28008;BME280;15333;50.010;20.020;2023-05-07T00:36:09;98927.38;;;9.84;100.00
28008;BME280;15333;50.010;20.020;2023-05-07T00:39:11;98927.59;;;9.94;100.00
28008;BME280;15333;50.010;20.020;2023-05-07T00:42:12;98933.16;;;9.78;100.00
28008;BME280;15333;50.010;20.020;2023-05-07T00:45:14;98934.97;;;9.77;100.00
28008;BME280;15333;50.010;20.020;2023-05-07T00:48:16;98945.53;;;9.66;100.00
28008;BME280;15333;50.010;20.020;2023-05-07T00:51:17;98950.44;;;9.47;100.00
28008;BME280;15333;50.010;20.020;2023-05-07T00:54:19;98951.97;;;9.51;100.00
28008;BME280;15333;50.010;20.020;2023-05-07T00:57:20;98947.34;;;9.53;100.00
28008;BME280;15333;50.010;20.020;2023-05-07T01:00:22;98947.56;;;9.37;100.00
28008;BME280;15333;50.010;20.020;2023-05-07T01:03:23;98944.22;;;9.34;100.00
28008;BME280;15333;50.010;20.020;2023-05-07T01:06:25;98938.91;;;9.34;100.00
28008;BME280;15333;50.010;20.020;2023-05-07T01:09:28;98941.75;;;9.31;100.00
28008;BME280;15333;50.010;20.020;2023-05-07T01:12:30;98944.44;;;9.31;100.00
28008;BME280;15333;50.010;20.020;2023-05-07T01:15:31;98944.22;;;9.34;100.00
28008;BME280;15333;50.010;20.020;2023-05-07T01:18:32;98952.00;;;9.24;100.00
28008;BME280;15333;50.010;20.020;2023-05-07T01:21:34;98950.41;;;9.22;100.00
28008;BME280;15333;50.010;20.020;2023-05-07T01:24:38;98947.44;;;9.26;100.00
28008;BME280;15333;50.010;20.020;2023-05-07T01:27:42;98943.78;;;9.15;100.00
28008;BME280;15333;50.010;20.020;2023-05-07T01:30:46;98944.31;;;9.20;100.00
28008;BME280;15333;50.010;20.020;2023-05-07T01:33:51;98958.09;;;9.14;100.00
28008;BME280;15333;50.010;20.020;2023-05-07T01:36:54;98955.72;;;9.09;100.00
28008;BME280;15333;50.010;20.020;2023-05-07T01:39:57;98960.00;;;9.12;100.00
28008;BME280;15333;50.010;20.020;2023-05-07T01:42:58;98959.22;;;9.10;100.00
28008;BME280;15333;50.010;20.020;2023-05-07T01:45:59;98967.66;;;9.03;100.00
28008;BME280;15333;50.010;20.020;2023-05-07T01:49:01;98967.78;;;9.02;100.00
28008;BME280;15333;50.010;20.020;2023-05-07T01:52:03;98959.88;;;9.00;100.00
28008;BME280;15333;50.010;20.020;2023-05-07T01:55:05;98963.81;;;8.95;100.00
28008;BME280;15333;50.010;20.020;2023-05-07T01:58:07;98962.72;;;8.97;100.00
28008;BME280;15333;50.010;20.020;2023-05-07T02:01:08;98964.84;;;8.92;100.00
28008;BME280;15333;50.010;20.020;2023-05-07T02:04:09;98965.66;;;8.80;100.00
28008;BME280;15333;50.010;20.020;2023-05-07T02:07:10;98972.22;;;8.75;100.00
28008;BME280;15333;50.010;20.020;2023-05-07T02:10:12;98969.28;;;8.79;100.00
28008;BME280;15333;50.010;20.020;2023-05-07T02:13:12;98971.78;;;8.68;100.00
28008;BME280;15333;50.010;20.020;2023-05-07T02:16:14;98967.13;;;8.72;100.00
28008;BME280;15333;50.010;20.020;2023-05-07T02:19:14;98970.47;;;8.61;100.00
28008;BME280;15333;50.010;20.020;2023-05-07T02:22:15;98965.28;;;8.45;100.00
28008;BME280;15333;50.010;20.020;2023-05-07T02:25:16;98966.13;;;8.46;100.00
28008;BME280;15333;50.010;20.020;2023-05-07T02:28:17;98973.38;;;8.44;100.00
28008;BME280;15333;50.010;20.020;2023-05-07T02:31:38;98981.97;;;8.35;100.00
28008;BME280;15333;50.010;20.020;2023-05-07T02:34:39;98981.53;;;8.26;100.00
28008;BME280;15333;50.010;20.020;2023-05-07T02:37:40;98982.78;;;8.21;100.00
28008;BME280;15333;50.010;20.020;2023-05-07T02:40:41;98978.88;;;8.26;100.00
28008;BME280;15333;50.010;20.020;2023-05-07T02:43:42;98984.03;;;8.30;100.00
28008;BME280;15333;50.010;20.020;2023-05-07T02:46:44;98992.03;;;8.30;100.00
28008;BME280;15333;50.010;20.020;2023-05-07T02:49:47;98981.31;;;8.31;100.00
28008;BME280;15333;50.010;20.020;2023-05-07T02:52:48;98985.66;;;8.32;100.00
28008;BME280;15333;50.010;20.020;2023-05-07T02:55:49;98985.75;;;8.45;100.00
28008;BME280;15333;50.010;20.020;2023-05-07T02:58:50;98987.94;;;8.24;100.00
28008;BME280;15333;50.010;20.020;2023-05-07T03:01:52;98992.59;;;8.20;100.00
28008;BME280;15333;50.010;20.020;2023-05-07T03:04:54;98999.25;;;8.27;100.00
28008;BME280;15333;50.010;20.020;2023-05-07T03:07:54;98994.72;;;8.15;100.00
28008;BME280;15333;50.010;20.020;2023-05-07T03:10:56;98993.66;;;8.18;100.00
28008;BME280;15333;50.010;20.020;2023-05-07T03:13:56;99003.84;;;8.11;100.00
28008;BME280;15333;50.010;20.020;2023-05-07T03:16:57;99005.94;;;8.06;100.00
28008;BME280;15333;50.010;20.020;2023-05-07T03:19:58;99015.66;;;8.07;100.00
28008;BME280;15333;50.010;20.020;2023-05-07T03:22:59;99010.88;;;8.12;100.00
28008;BME280;15333;50.010;20.020;2023-05-07T03:26:00;99009.75;;;8.02;100.00
28008;BME280;15333;50.010;20.020;2023-05-07T03:29:01;99015.09;;;8.02;100.00
28008;BME280;15333;50.010;20.020;2023-05-07T03:32:02;99017.38;;;8.08;100.00
28008;BME280;15333;50.010;20.020;2023-05-07T03:35:04;99026.00;;;8.12;100.00
28008;BME280;15333;50.010;20.020;2023-05-07T03:51:35;99042.19;;;7.95;100.00
28008;BME280;15333;50.010;20.020;2023-05-07T03:54:38;99044.09;;;7.93;100.00
28008;BME280;15333;50.010;20.020;2023-05-07T03:57:39;99045.50;;;7.84;100.00
28008;BME280;15333;50.010;20.020;2023-05-07T04:00:41;99052.94;;;7.93;100.00
28008;BME280;15333;50.010;20.020;2023-05-07T04:03:52;99056.56;;;7.92;100.00
28008;BME280;15333;50.010;20.020;2023-05-07T04:06:53;99054.84;;;7.91;100.00
28008;BME280;15333;50.010;20.020;2023-05-07T04:09:56;99062.44;;;7.83;100.00
28008;BME280;15333;50.010;20.020;2023-05-07T04:12:57;99054.84;;;7.91;100.00
28008;BME280;15333;50.010;20.020;2023-05-07T04:16:02;99061.56;;;7.82;100.00
28008;BME280;15333;50.010;20.020;2023-05-07T04:19:03;99060.53;;;7.85;100.00
28008;BME280;15333;50.010;20.020;2023-05-07T04:22:04;99068.38;;;7.88;100.00
28008;BME280;15333;50.010;20.020;2023-05-07T04:25:06;99065.81;;;8.01;100.00
28008;BME280;15333;50.010;20.020;2023-05-07T04:28:09;99072.56;;;7.92;100.00
28008;BME280;15333;50.010;20.020;2023-05-07T04:31:11;99076.72;;;7.96;100.00
28008;BME280;15333;50.010;20.020;2023-05-07T04:34:13;99076.53;;;7.85;100.00
28008;BME280;15333;50.010;20.020;2023-05-07T04:37:15;99082.63;;;7.87;100.00
28008;BME280;15333;50.010;20.020;2023-05-07T04:40:16;99088.72;;;7.89;100.00
28008;BME280;15333;50.010;20.020;2023-05-07T04:43:18;99092.88;;;7.79;100.00
28008;BME280;15333;50.010;20.020;2023-05-07T04:46:24;99095.88;;;7.59;100.00
28008;BME280;15333;50.010;20.020;2023-05-07T04:49:25;99091.25;;;7.46;100.00
28008;BME280;15333;50.010;20.020;2023-05-07T04:52:28;99111.03;;;7.42;100.00
28008;BME280;15333;50.010;20.020;2023-05-07T04:55:29;99110.84;;;7.45;100.00
28008;BME280;15333;50.010;20.020;2023-05-07T04:58:31;99117.63;;;7.51;100.00
28008;BME280;15333;50.010;20.020;2023-05-07T05:01:32;99111.25;;;7.54;100.00
28008;BME280;15333;50.010;20.020;2023-05-07T05:04:33;99117.53;;;7.53;100.00
28008;BME280;15333;50.010;20.020;2023-05-07T05:07:34;99123.56;;;7.40;100.00
28008;BME280;15333;50.010;20.020;2023-05-07T05:10:36;99120.31;;;7.35;100.00
28008;BME280;15333;50.010;20.020;2023-05-07T05:13:37;99129.59;;;7.28;100.00
28008;BME280;15333;50.010;20.020;2023-05-07T05:16:45;99133.97;;;7.29;100.00
28008;BME280;15333;50.010;20.020;2023-05-07T05:19:46;99133.19;;;7.27;100.00
28008;BME280;15333;50.010;20.020;2023-05-07T05:22:47;99136.44;;;7.32;100.00
28008;BME280;15333;50.010;20.020;2023-05-07T05:25:48;99142.97;;;7.42;100.00
28008;BME280;15333;50.010;20.020;2023-05-07T05:28:50;99134.56;;;7.34;100.00
28008;BME280;15333;50.010;20.020;2023-05-07T05:31:54;99146.94;;;7.35;100.00
28008;BME280;15333;50.010;20.020;2023-05-07T05:34:56;99152.09;;;7.38;100.00
28008;BME280;15333;50.010;20.020;2023-05-07T05:37:57;99151.41;;;7.35;100.00
28008;BME280;15333;50.010;20.020;2023-05-07T05:40:58;99153.78;;;7.39;100.00
28008;BME280;15333;50.010;20.020;2023-05-07T05:43:59;99158.00;;;7.43;100.00
28008;BME280;15333;50.010;20.020;2023-05-07T05:47:00;99157.66;;;7.18;100.00
28008;BME280;15333;50.010;20.020;2023-05-07T05:50:02;99167.13;;;7.08;100.00
28008;BME280;15333;50.010;20.020;2023-05-07T05:53:03;99166.84;;;6.97;100.00
28008;BME280;15333;50.010;20.020;2023-05-07T05:56:04;99165.16;;;6.96;100.00
28008;BME280;15333;50.010;20.020;2023-05-07T05:59:06;99179.72;;;6.89;100.00
28008;BME280;15333;50.010;20.020;2023-05-07T06:02:08;99187.19;;;6.98;100.00
28008;BME280;15333;50.010;20.020;2023-05-07T06:05:09;99185.78;;;6.91;100.00
28008;BME280;15333;50.010;20.020;2023-05-07T06:08:10;99188.66;;;6.88;100.00
28008;BME280;15333;50.010;20.020;2023-05-07T06:11:11;99197.44;;;6.73;100.00
28008;BME280;15333;50.010;20.020;2023-05-07T06:14:14;99203.53;;;6.75;100.00
28008;BME280;15333;50.010;20.020;2023-05-07T06:17:15;99202.63;;;6.58;100.00
28008;BME280;15333;50.010;20.020;2023-05-07T06:20:16;99196.25;;;6.45;100.00
28008;BME280;15333;50.010;20.020;2023-05-07T06:23:18;99212.03;;;6.48;100.00
28008;BME280;15333;50.010;20.020;2023-05-07T06:26:19;99213.28;;;6.58;100.00
28008;BME280;15333;50.010;20.020;2023-05-07T06:29:22;99214.28;;;6.56;100.00
28008;BME280;15333;50.010;20.020;2023-05-07T06:32:23;99208.97;;;6.56;100.00
28008;BME280;15333;50.010;20.020;2023-05-07T06:35:26;99214.06;;;6.60;100.00
28008;BME280;15333;50.010;20.020;2023-05-07T06:38:28;99210.34;;;6.63;100.00
28008;BME280;15333;50.010;20.020;2023-05-07T06:41:28;99212.47;;;6.56;100.00
28008;BME280;15333;50.010;20.020;2023-05-07T06:44:33;99203.84;;;6.68;100.00
28008;BME280;15333;50.010;20.020;2023-05-07T06:47:46;99215.44;;;6.67;100.00
28008;BME280;15333;50.010;20.020;2023-05-07T06:50:47;99217.25;;;6.67;100.00
28008;BME280;15333;50.010;20.020;2023-05-07T06:53:48;99216.84;;;6.75;100.00
28008;BME280;15333;50.010;20.020;2023-05-07T06:56:49;99217.78;;;6.74;100.00
28008;BME280;15333;50.010;20.020;2023-05-07T06:59:51;99219.31;;;6.78;100.00
28008;BME280;15333;50.010;20.020;2023-05-07T07:02:54;99218.84;;;6.87;100.00
28008;BME280;15333;50.010;20.020;2023-05-07T07:05:58;99216.09;;;6.88;100.00
28008;BME280;15333;50.010;20.020;2023-05-07T07:08:59;99233.97;;;7.18;100.00
28008;BME280;15333;50.010;20.020;2023-05-07T07:12:01;99231.25;;;7.19;100.00
28008;BME280;15333;50.010;20.020;2023-05-07T07:15:03;99235.19;;;7.12;100.00
28008;BME280;15333;50.010;20.020;2023-05-07T07:18:04;99237.31;;;7.38;100.00
28008;BME280;15333;50.010;20.020;2023-05-07T07:21:05;99240.97;;;7.20;100.00
28008;BME280;15333;50.010;20.020;2023-05-07T07:24:06;99250.28;;;6.96;100.00
28008;BME280;15333;50.010;20.020;2023-05-07T07:27:07;99248.44;;;7.29;100.00
28008;BME280;15333;50.010;20.020;2023-05-07T07:30:09;99252.41;;;7.54;100.00
28008;BME280;15333;50.010;20.020;2023-05-07T07:33:13;99246.22;;;7.53;100.00
28008;BME280;15333;50.010;20.020;2023-05-07T07:36:14;99249.72;;;7.54;100.00
28008;BME280;15333;50.010;20.020;2023-05-07T07:39:15;99259.78;;;7.17;100.00
28008;BME280;15333;50.010;20.020;2023-05-07T07:42:17;99270.09;;;7.23;100.00
28008;BME280;15333;50.010;20.020;2023-05-07T07:45:19;99265.91;;;7.02;100.00
28008;BME280;15333;50.010;20.020;2023-05-07T07:48:22;99276.31;;;6.89;100.00
28008;BME280;15333;50.010;20.020;2023-05-07T07:51:24;99285.47;;;7.01;100.00
28008;BME280;15333;50.010;20.020;2023-05-07T07:54:25;99283.91;;;6.97;100.00
28008;BME280;15333;50.010;20.020;2023-05-07T07:57:26;99283.50;;;7.04;100.00
28008;BME280;15333;50.010;20.020;2023-05-07T08:00:27;99290.41;;;6.91;100.00
28008;BME280;15333;50.010;20.020;2023-05-07T08:03:31;99288.75;;;7.06;100.00
28008;BME280;15333;50.010;20.020;2023-05-07T08:06:33;99287.53;;;6.96;100.00
28008;BME280;15333;50.010;20.020;2023-05-07T08:09:34;99296.94;;;6.86;100.00
28008;BME280;15333;50.010;20.020;2023-05-07T08:12:37;99298.47;;;6.90;100.00
28008;BME280;15333;50.010;20.020;2023-05-07T08:15:38;99298.78;;;7.01;100.00
28008;BME280;15333;50.010;20.020;2023-05-07T08:18:39;99296.94;;;6.86;100.00
28008;BME280;15333;50.010;20.020;2023-05-07T08:21:41;99305.53;;;6.91;100.00
28008;BME280;15333;50.010;20.020;2023-05-07T08:24:43;99313.03;;;6.83;100.00
28008;BME280;15333;50.010;20.020;2023-05-07T08:27:45;99316.66;;;6.82;100.00
28008;BME280;15333;50.010;20.020;2023-05-07T08:30:47;99320.41;;;6.78;100.00
28008;BME280;15333;50.010;20.020;2023-05-07T08:33:48;99325.25;;;6.87;100.00
28008;BME280;15333;50.010;20.020;2023-05-07T08:36:49;99321.94;;;7.16;100.00
28008;BME280;15333;50.010;20.020;2023-05-07T08:39:53;99335.56;;;7.10;100.00
28008;BME280;15333;50.010;20.020;2023-05-07T08:42:56;99336.84;;;7.03;100.00
28008;BME280;15333;50.010;20.020;2023-05-07T08:46:00;99347.78;;;6.97;100.00
28008;BME280;15333;50.010;20.020;2023-05-07T08:49:05;99338.75;;;7.17;100.00
28008;BME280;15333;50.010;20.020;2023-05-07T08:52:06;99337.38;;;7.25;100.00
28008;BME280;15333;50.010;20.020;2023-05-07T08:55:10;99348.16;;;7.06;100.00
28008;BME280;15333;50.010;20.020;2023-05-07T08:58:11;99347.16;;;7.09;100.00
28008;BME280;15333;50.010;20.020;2023-05-07T09:01:15;99349.81;;;6.92;100.00
28008;BME280;15333;50.010;20.020;2023-05-07T09:04:18;99353.41;;;6.91;100.00
28008;BME280;15333;50.010;20.020;2023-05-07T09:07:20;99352.94;;;7.00;100.00
28008;BME280;15333;50.010;20.020;2023-05-07T09:10:22;99354.59;;;6.85;100.00
28008;BME280;15333;50.010;20.020;2023-05-07T09:13:23;99354.88;;;7.14;100.00
28008;BME280;15333;50.010;20.020;2023-05-07T09:16:25;99355.91;;;7.11;100.00
28008;BME280;15333;50.010;20.020;2023-05-07T09:19:26;99363.53;;;7.34;100.00
28008;BME280;15333;50.010;20.020;2023-05-07T09:22:32;99373.78;;;6.75;100.00
28008;BME280;15333;50.010;20.020;2023-05-07T09:25:37;99385.97;;;6.79;100.00
28008;BME280;15333;50.010;20.020;2023-05-07T09:28:45;99383.06;;;6.83;100.00
28008;BME280;15333;50.010;20.020;2023-05-07T09:31:48;99395.28;;;7.22;100.00
28008;BME280;15333;50.010;20.020;2023-05-07T09:34:50;99390.81;;;7.22;100.00
28008;BME280;15333;50.010;20.020;2023-05-07T09:37:59;99391.75;;;7.38;100.00
28008;BME280;15333;50.010;20.020;2023-05-07T09:41:10;99388.44;;;7.33;100.00
28008;BME280;15333;50.010;20.020;2023-05-07T09:44:43;99393.94;;;7.30;100.00
28008;BME280;15333;50.010;20.020;2023-05-07T09:47:48;99390.69;;;7.41;100.00
28008;BME280;15333;50.010;20.020;2023-05-07T09:50:53;99401.72;;;7.00;100.00
28008;BME280;15333;50.010;20.020;2023-05-07T09:53:59;99410.72;;;7.15;100.00
28008;BME280;15333;50.010;20.020;2023-05-07T09:57:05;99416.16;;;6.78;100.00
28008;BME280;15333;50.010;20.020;2023-05-07T10:00:08;99419.31;;;6.86;100.00
28008;BME280;15333;50.010;20.020;2023-05-07T10:03:31;99418.84;;;6.95;100.00
28008;BME280;15333;50.010;20.020;2023-05-07T10:06:38;99406.78;;;7.22;100.00
28008;BME280;15333;50.010;20.020;2023-05-07T10:09:40;99405.59;;;7.45;100.00
28008;BME280;15333;50.010;20.020;2023-05-07T10:12:50;99404.47;;;7.49;100.00
28008;BME280;15333;50.010;20.020;2023-05-07T10:15:59;99416.44;;;7.58;100.00
28008;BME280;15333;50.010;20.020;2023-05-07T10:19:06;99415.38;;;7.44;100.00
28008;BME280;15333;50.010;20.020;2023-05-07T10:22:09;99421.97;;;7.37;100.00
28008;BME280;15333;50.010;20.020;2023-05-07T10:25:22;99424.91;;;7.48;100.00
28008;BME280;15333;50.010;20.020;2023-05-07T10:28:25;99429.47;;;7.29;100.00
28008;BME280;15333;50.010;20.020;2023-05-07T10:34:42;99434.63;;;7.32;100.00
28008;BME280;15333;50.010;20.020;2023-05-07T10:37:45;99433.88;;;7.13;100.00
28008;BME280;15333;50.010;20.020;2023-05-07T10:40:47;99447.31;;;7.44;100.00
28008;BME280;15333;50.010;20.020;2023-05-07T10:43:48;99440.53;;;7.22;100.00
28008;BME280;15333;50.010;20.020;2023-05-07T10:47:10;99447.78;;;7.18;100.00
28008;BME280;15333;50.010;20.020;2023-05-07T10:59:30;99452.03;;;7.05;100.00
28008;BME280;15333;50.010;20.020;2023-05-07T11:06:15;99458.59;;;7.50;100.00
28008;BME280;15333;50.010;20.020;2023-05-07T11:09:23;99466.13;;;7.07;100.00
28008;BME280;15333;50.010;20.020;2023-05-07T11:15:44;99460.66;;;7.44;100.00
28008;BME280;15333;50.010;20.020;2023-05-07T11:19:12;99452.50;;;7.30;100.00
28008;BME280;15333;50.010;20.020;2023-05-07T11:25:43;99459.28;;;7.53;100.00
28008;BME280;15333;50.010;20.020;2023-05-07T11:28:52;99459.84;;;7.60;100.00
28008;BME280;15333;50.010;20.020;2023-05-07T11:31:55;99462.19;;;7.66;100.00
28008;BME280;15333;50.010;20.020;2023-05-07T11:34:59;99466.72;;;7.46;100.00
28008;BME280;15333;50.010;20.020;2023-05-07T11:38:01;99463.19;;;7.63;100.00
28008;BME280;15333;50.010;20.020;2023-05-07T11:41:05;99462.59;;;7.58;100.00
28008;BME280;15333;50.010;20.020;2023-05-07T11:44:06;99473.38;;;7.55;100.00
28008;BME280;15333;50.010;20.020;2023-05-07T11:47:07;99474.91;;;7.43;100.00
28008;BME280;15333;50.010;20.020;2023-05-07T11:50:09;99475.97;;;7.39;100.00
28008;BME280;15333;50.010;20.020;2023-05-07T11:53:11;99473.94;;;7.27;100.00
28008;BME280;15333;50.010;20.020;2023-05-07T11:56:15;99477.09;;;7.35;100.00
28008;BME280;15333;50.010;20.020;2023-05-07T11:59:18;99492.91;;;7.38;100.00
28008;BME280;15333;50.010;20.020;2023-05-07T12:02:20;99493.06;;;7.35;100.00
28008;BME280;15333;50.010;20.020;2023-05-07T12:05:20;99492.91;;;7.21;100.00
28008;BME280;15333;50.010;20.020;2023-05-07T12:08:21;99486.34;;;7.28;100.00
28008;BME280;15333;50.010;20.020;2023-05-07T12:11:23;99495.09;;;7.65;100.00
28008;BME280;15333;50.010;20.020;2023-05-07T12:14:27;99503.03;;;7.82;100.00
28008;BME280;15333;50.010;20.020;2023-05-07T12:17:29;99493.88;;;7.88;100.00
28008;BME280;15333;50.010;20.020;2023-05-07T12:20:30;99493.03;;;7.70;100.00
28008;BME280;15333;50.010;20.020;2023-05-07T12:23:32;99498.06;;;7.59;100.00
28008;BME280;15333;50.010;20.020;2023-05-07T12:26:37;99506.22;;;7.56;100.00
28008;BME280;15333;50.010;20.020;2023-05-07T12:29:38;99505.25;;;7.39;100.00
28008;BME280;15333;50.010;20.020;2023-05-07T12:32:40;99501.66;;;7.40;100.00
28008;BME280;15333;50.010;20.020;2023-05-07T12:35:42;99501.53;;;7.43;100.00
28008;BME280;15333;50.010;20.020;2023-05-07T12:38:45;99507.00;;;7.40;100.00
28008;BME280;15333;50.010;20.020;2023-05-07T12:41:56;99503.63;;;7.54;100.00
28008;BME280;15333;50.010;20.020;2023-05-07T12:44:59;99509.50;;;7.61;100.00
28008;BME280;15333;50.010;20.020;2023-05-07T12:48:01;99511.56;;;7.38;100.00
28008;BME280;15333;50.010;20.020;2023-05-07T12:51:05;99511.22;;;7.27;100.00
28008;BME280;15333;50.010;20.020;2023-05-07T12:54:06;99512.94;;;7.28;100.00
28008;BME280;15333;50.010;20.020;2023-05-07T12:57:09;99520.78;;;7.14;100.00
28008;BME280;15333;50.010;20.020;2023-05-07T13:00:10;99526.34;;;7.27;100.00
28008;BME280;15333;50.010;20.020;2023-05-07T13:03:11;99520.00;;;7.29;100.00
28008;BME280;15333;50.010;20.020;2023-05-07T13:06:12;99521.00;;;7.27;100.00
28008;BME280;15333;50.010;20.020;2023-05-07T13:09:13;99522.59;;;7.48;100.00
28008;BME280;15333;50.010;20.020;2023-05-07T13:12:14;99517.97;;;7.34;100.00
28008;BME280;15333;50.010;20.020;2023-05-07T13:15:15;99529.25;;;7.22;100.00
28008;BME280;15333;50.010;20.020;2023-05-07T13:18:17;99532.84;;;7.21;100.00
28008;BME280;15333;50.010;20.020;2023-05-07T13:21:17;99527.06;;;7.30;100.00
28008;BME280;15333;50.010;20.020;2023-05-07T13:24:18;99528.47;;;7.37;100.00
28008;BME280;15333;50.010;20.020;2023-05-07T13:27:20;99528.63;;;7.52;100.00
28008;BME280;15333;50.010;20.020;2023-05-07T13:30:21;99522.25;;;7.71;100.00
28008;BME280;15333;50.010;20.020;2023-05-07T13:33:22;99530.72;;;7.79;99.77
28008;BME280;15333;50.010;20.020;2023-05-07T13:36:23;99538.50;;;7.67;100.00
28008;BME280;15333;50.010;20.020;2023-05-07T13:39:24;99533.63;;;7.58;99.59
28008;BME280;15333;50.010;20.020;2023-05-07T13:42:25;99529.47;;;7.69;100.00
28008;BME280;15333;50.010;20.020;2023-05-07T13:45:25;99533.94;;;7.69;99.05
28008;BME280;15333;50.010;20.020;2023-05-07T13:48:27;99533.63;;;7.40;98.89
28008;BME280;15333;50.010;20.020;2023-05-07T13:51:31;99535.59;;;7.37;98.89
28008;BME280;15333;50.010;20.020;2023-05-07T13:54:32;99544.50;;;7.53;99.30
28008;BME280;15333;50.010;20.020;2023-05-07T13:57:33;99531.44;;;7.48;97.61
28008;BME280;15333;50.010;20.020;2023-05-07T14:00:34;99539.44;;;7.31;98.61
28008;BME280;15333;50.010;20.020;2023-05-07T14:03:34;99538.25;;;7.37;98.90
28008;BME280;15333;50.010;20.020;2023-05-07T14:06:38;99539.19;;;7.36;99.52
28008;BME280;15333;50.010;20.020;2023-05-07T14:09:39;99538.47;;;7.32;99.50
28008;BME280;15333;50.010;20.020;2023-05-07T14:12:40;99552.66;;;7.33;98.56
28008;BME280;15333;50.010;20.020;2023-05-07T14:15:41;99543.97;;;7.46;99.04
28008;BME280;15333;50.010;20.020;2023-05-07T14:18:47;99557.28;;;7.64;98.49
28008;BME280;15333;50.010;20.020;2023-05-07T14:21:47;99555.16;;;7.53;98.37
28008;BME280;15333;50.010;20.020;2023-05-07T14:24:49;99558.53;;;7.39;98.88
28008;BME280;15333;50.010;20.020;2023-05-07T14:27:50;99559.06;;;7.46;98.47
28008;BME280;15333;50.010;20.020;2023-05-07T14:30:51;99562.31;;;7.53;98.69
28008;BME280;15333;50.010;20.020;2023-05-07T14:33:53;99560.88;;;7.63;98.28
28008;BME280;15333;50.010;20.020;2023-05-07T14:36:54;99567.16;;;7.44;98.38
28008;BME280;15333;50.010;20.020;2023-05-07T14:39:56;99578.59;;;7.29;99.68
28008;BME280;15333;50.010;20.020;2023-05-07T14:42:57;99588.91;;;7.35;100.00
28008;BME280;15333;50.010;20.020;2023-05-07T14:45:58;99587.25;;;7.16;100.00
28008;BME280;15333;50.010;20.020;2023-05-07T14:48:59;99580.03;;;7.18;100.00
28008;BME280;15333;50.010;20.020;2023-05-07T14:52:00;99586.69;;;7.09;100.00
28008;BME280;15333;50.010;20.020;2023-05-07T14:55:01;99592.97;;;7.25;100.00
28008;BME280;15333;50.010;20.020;2023-05-07T14:58:02;99594.69;;;7.26;100.00
28008;BME280;15333;50.010;20.020;2023-05-07T15:01:03;99589.84;;;7.17;100.00
28008;BME280;15333;50.010;20.020;2023-05-07T15:04:04;99588.88;;;7.18;100.00
28008;BME280;15333;50.010;20.020;2023-05-07T15:07:05;99598.28;;;7.25;100.00
28008;BME280;15333;50.010;20.020;2023-05-07T15:10:06;99600.19;;;7.23;100.00
28008;BME280;15333;50.010;20.020;2023-05-07T15:13:09;99600.19;;;7.23;100.00
28008;BME280;15333;50.010;20.020;2023-05-07T15:16:10;99606.66;;;7.18;100.00
28008;BME280;15333;50.010;20.020;2023-05-07T15:19:11;99602.09;;;7.02;100.00
28008;BME280;15333;50.010;20.020;2023-05-07T15:22:12;99604.97;;;6.98;100.00
28008;BME280;15333;50.010;20.020;2023-05-07T15:25:13;99606.97;;;6.93;100.00
28008;BME280;15333;50.010;20.020;2023-05-07T15:28:13;99608.91;;;6.89;100.00
28008;BME280;15333;50.010;20.020;2023-05-07T15:31:15;99609.00;;;6.88;100.00
28008;BME280;15333;50.010;20.020;2023-05-07T15:34:17;99612.44;;;6.71;100.00
28008;BME280;15333;50.010;20.020;2023-05-07T15:37:18;99613.91;;;6.59;100.00
28008;BME280;15333;50.010;20.020;2023-05-07T15:40:19;99622.81;;;6.58;100.00
28008;BME280;15333;50.010;20.020;2023-05-07T15:43:20;99631.59;;;6.60;100.00
28008;BME280;15333;50.010;20.020;2023-05-07T15:46:23;99632.41;;;6.61;100.00
28008;BME280;15333;50.010;20.020;2023-05-07T15:49:25;99631.59;;;6.60;100.00
28008;BME280;15333;50.010;20.020;2023-05-07T15:52:26;99629.91;;;6.58;100.00
28008;BME280;15333;50.010;20.020;2023-05-07T15:55:28;99637.72;;;6.61;100.00
28008;BME280;15333;50.010;20.020;2023-05-07T15:58:29;99638.75;;;6.58;100.00
28008;BME280;15333;50.010;20.020;2023-05-07T16:01:31;99619.22;;;6.59;100.00
28008;BME280;15333;50.010;20.020;2023-05-07T16:04:32;99629.69;;;6.62;100.00
28008;BME280;15333;50.010;20.020;2023-05-07T16:07:33;99630.72;;;6.60;100.00
28008;BME280;15333;50.010;20.020;2023-05-07T16:10:34;99636.03;;;6.60;100.00
28008;BME280;15333;50.010;20.020;2023-05-07T16:13:35;99633.38;;;6.60;100.00
28008;BME280;15333;50.010;20.020;2023-05-07T16:16:36;99632.56;;;6.58;100.00
28008;BME280;15333;50.010;20.020;2023-05-07T16:19:39;99637.31;;;6.51;100.00
28008;BME280;15333;50.010;20.020;2023-05-07T16:22:40;99637.91;;;6.58;100.00
28008;BME280;15333;50.010;20.020;2023-05-07T16:25:41;99635.19;;;6.59;100.00
28008;BME280;15333;50.010;20.020;2023-05-07T16:28:42;99638.38;;;6.47;100.00
28008;BME280;15333;50.010;20.020;2023-05-07T16:31:43;99643.97;;;6.41;100.00